Time;durP1;ratioP1;P1;durP2;ratioP2;P2;SDS_P1;SDS_P2;PMS_P1;PMS_P2;Temp;Humidity;BMP_temperature;BMP_pressure;BME280_temperature;BME280_humidity;BME280_pressure;Samples;Min_cycle;Max_cycle;Signal;HPM_P1;HPM_P2
2023/02/07 00:01:25;;;;;;;8.93;2.07;;;27.10;66.30;;;;;;5069364;28;20699;-69
2023/02/07 00:03:55;;;;;;;8.23;2.43;;;26.90;66.80;;;;;;5068287;28;20175;-69
2023/02/07 00:06:26;;;;;;;6.90;2.03;;;26.70;66.80;;;;;;5069554;28;20171;-70
2023/02/07 00:08:54;;;;;;;9.57;1.90;;;26.60;67.90;;;;;;5067872;28;20292;-69
2023/02/07 00:11:22;;;;;;;11.43;2.03;;;26.40;68.70;;;;;;5068407;28;20183;-69
2023/02/07 00:13:53;;;;;;;6.83;2.23;;;26.40;68.80;;;;;;5069366;28;20290;-70
2023/02/07 00:16:21;;;;;;;11.03;2.40;;;26.30;69.30;;;;;;5069001;28;20187;-69
2023/02/07 00:18:51;;;;;;;7.63;2.30;;;26.30;69.90;;;;;;5067989;28;20206;-70
2023/02/07 00:21:20;;;;;;;7.47;2.03;;;26.30;70.20;;;;;;5062945;28;20179;-69
2023/02/07 00:23:48;;;;;;;8.93;2.07;;;26.30;69.80;;;;;;5068481;28;20198;-70
2023/02/07 00:26:17;;;;;;;10.17;2.20;;;26.30;69.50;;;;;;5067963;28;20312;-70
2023/02/07 00:28:44;;;;;;;9.03;2.07;;;26.40;69.70;;;;;;5068215;28;20206;-70
2023/02/07 00:31:26;;;;;;;10.60;2.23;;;26.50;69.10;;;;;;5067572;28;20222;-68
2023/02/07 00:33:56;;;;;;;11.27;2.50;;;26.90;67.90;;;;;;5061195;28;20200;-70
2023/02/07 00:36:25;;;;;;;17.47;2.60;;;27.40;65.50;;;;;;5067942;28;20915;-70
2023/02/07 00:39:00;;;;;;;16.53;1.93;;;27.80;63.80;;;;;;5068188;28;20183;-70
2023/02/07 00:41:28;;;;;;;9.30;2.03;;;28.30;63.00;;;;;;5067842;28;20195;-70
2023/02/07 00:43:56;;;;;;;6.13;1.77;;;28.50;61.90;;;;;;5072170;28;20685;-70
2023/02/07 00:46:24;;;;;;;9.20;2.63;;;28.40;61.70;;;;;;5073195;28;20220;-69
2023/02/07 00:48:51;;;;;;;10.73;2.10;;;28.30;61.90;;;;;;5071541;28;20175;-69
2023/02/07 00:51:19;;;;;;;11.03;2.30;;;28.20;62.50;;;;;;5073965;28;20194;-68
2023/02/07 00:53:47;;;;;;;8.83;2.23;;;27.90;63.70;;;;;;5074117;28;20215;-70
2023/02/07 00:56:15;;;;;;;8.90;2.40;;;27.60;65.00;;;;;;5073800;28;20179;-68
2023/02/07 00:58:43;;;;;;;11.33;1.80;;;27.40;66.50;;;;;;5074640;28;20649;-69
2023/02/07 01:01:10;;;;;;;10.43;2.17;;;27.10;67.80;;;;;;5074532;28;20190;-68
2023/02/07 01:03:38;;;;;;;8.00;2.00;;;27.00;67.30;;;;;;5075291;28;20537;-70
2023/02/07 01:06:06;;;;;;;5.00;1.73;;;26.90;67.10;;;;;;5074090;28;20228;-70
2023/02/07 01:08:34;;;;;;;6.83;2.00;;;26.80;67.00;;;;;;5072565;28;20550;-71
2023/02/07 01:11:13;;;;;;;8.63;1.93;;;26.70;67.50;;;;;;5072772;28;20269;-70
2023/02/07 01:13:42;;;;;;;5.73;1.80;;;26.60;67.40;;;;;;5072249;28;20198;-70
2023/02/07 01:16:34;;;;;;;7.83;1.90;;;26.50;66.40;;;;;;5074072;28;20637;-70
2023/02/07 01:19:05;;;;;;;5.90;1.70;;;26.70;66.10;;;;;;5070581;28;20214;-72
2023/02/07 01:21:32;;;;;;;9.13;2.20;;;26.50;66.60;;;;;;5074204;28;20187;-70
2023/02/07 01:24:00;;;;;;;9.13;2.00;;;26.60;66.70;;;;;;5074364;28;20182;-71
2023/02/07 01:26:27;;;;;;;7.43;1.90;;;26.70;65.90;;;;;;5073609;28;20179;-70
2023/02/07 01:28:56;;;;;;;6.60;2.10;;;26.70;66.40;;;;;;5074057;28;20179;-71
2023/02/07 01:31:24;;;;;;;7.57;2.10;;;26.70;65.60;;;;;;5073351;28;20184;-70
2023/02/07 01:33:59;;;;;;;8.13;2.00;;;27.20;65.80;;;;;;5073977;28;20716;-71
2023/02/07 01:36:28;;;;;;;8.70;2.00;;;27.40;64.90;;;;;;5073773;28;20179;-69
2023/02/07 01:38:56;;;;;;;7.60;2.20;;;27.30;65.10;;;;;;5074206;28;20183;-71
2023/02/07 01:41:26;;;;;;;8.83;2.20;;;27.40;63.90;;;;;;5072526;28;20323;-70
2023/02/07 01:44:00;;;;;;;10.73;2.40;;;27.70;64.40;;;;;;5074052;28;20183;-70
2023/02/07 01:46:29;;;;;;;12.00;2.43;;;27.80;64.00;;;;;;5073821;28;20175;-70
2023/02/07 01:49:01;;;;;;;9.30;1.90;;;28.50;63.60;;;;;;5073470;28;20183;-69
2023/02/07 01:51:29;;;;;;;13.53;2.00;;;28.80;61.50;;;;;;5072876;28;20614;-69
2023/02/07 01:54:00;;;;;;;6.10;1.83;;;29.30;59.70;;;;;;5072677;28;20223;-72
2023/02/07 01:56:28;;;;;;;8.53;2.20;;;29.20;59.30;;;;;;5072865;28;20552;-69
2023/02/07 01:58:56;;;;;;;6.83;2.27;;;29.30;59.60;;;;;;5072960;28;20187;-69
2023/02/07 02:01:25;;;;;;;7.87;2.30;;;29.20;59.60;;;;;;5071795;28;20202;-69
2023/02/07 02:03:55;;;;;;;6.00;1.83;;;29.10;59.40;;;;;;5072832;28;20175;-69
2023/02/07 02:06:25;;;;;;;10.00;2.27;;;29.30;57.80;;;;;;5072894;28;20233;-68
2023/02/07 02:08:58;;;;;;;8.17;2.80;;;29.50;57.00;;;;;;5073701;28;20539;-69
2023/02/07 02:11:44;;;;;;;6.73;2.63;;;29.00;56.90;;;;;;5072202;28;20207;-70
2023/02/07 02:14:39;;;;;;;7.27;1.87;;;28.80;57.10;;;;;;5072691;28;20217;-68
2023/02/07 02:17:16;;;;;;;10.03;2.33;;;28.60;58.20;;;;;;5075908;28;20644;-72
2023/02/07 02:19:58;;;;;;;7.70;2.20;;;28.60;59.80;;;;;;5064894;28;20188;-73
2023/02/07 02:22:51;;;;;;;10.17;2.13;;;28.60;60.30;;;;;;5073004;28;20171;-70
2023/02/07 02:25:50;;;;;;;7.80;4.40;;;28.40;61.70;;;;;;5072302;28;20266;-70
2023/02/07 02:28:45;;;;;;;8.60;2.90;;;28.80;60.00;;;;;;5063270;28;20219;-69
2023/02/07 02:31:34;;;;;;;9.83;1.83;;;29.40;58.90;;;;;;5071025;28;20182;-70
2023/02/07 02:34:20;;;;;;;8.67;1.93;;;29.30;59.70;;;;;;5071551;28;20207;-69
2023/02/07 02:37:24;;;;;;;6.17;3.00;;;29.20;59.90;;;;;;5070251;28;20183;-72
2023/02/07 02:40:03;;;;;;;8.33;4.07;;;29.30;60.10;;;;;;5073064;28;20316;-74
2023/02/07 02:42:51;;;;;;;8.73;2.17;;;29.50;58.50;;;;;;5071929;28;20190;-69
2023/02/07 02:45:21;;;;;;;7.43;2.27;;;29.30;59.70;;;;;;5067466;28;20274;-69
2023/02/07 02:47:50;;;;;;;7.87;1.87;;;29.90;58.60;;;;;;5072838;28;20645;-69
2023/02/07 02:50:29;;;;;;;6.03;1.70;;;30.00;57.70;;;;;;5063422;28;20175;-73
2023/02/07 02:52:57;;;;;;;8.57;1.93;;;29.80;58.80;;;;;;5068355;28;20276;-68
2023/02/07 02:56:05;;;;;;;6.77;2.17;;;29.70;59.80;;;;;;5071152;28;20447;-68
2023/02/07 02:59:07;;;;;;;4.37;1.60;;;30.20;58.40;;;;;;5071625;28;20179;-71
2023/02/07 03:01:40;;;;;;;5.80;1.90;;;30.70;56.00;;;;;;5072376;28;20229;-68
2023/02/07 03:04:41;;;;;;;8.77;1.93;;;30.80;54.70;;;;;;5068131;28;20183;-69
2023/02/07 03:07:21;;;;;;;9.27;1.95;;;30.90;55.40;;;;;;5068608;28;20179;-70
2023/02/07 03:10:13;;;;;;;10.38;1.95;;;30.40;56.10;;;;;;5068900;28;20187;-72
2023/02/07 03:12:58;;;;;;;8.07;2.00;;;29.60;57.10;;;;;;5068554;28;20270;-72
2023/02/07 03:15:31;;;;;;;14.27;1.83;;;29.80;57.80;;;;;;5071292;28;20222;-70
2023/02/07 03:18:23;;;;;;;5.88;2.00;;;30.10;57.30;;;;;;5072054;28;20203;-70
2023/02/07 03:21:16;;;;;;;6.87;1.80;;;30.00;56.30;;;;;;5069893;28;20233;-69
2023/02/07 03:23:46;;;;;;;8.70;1.77;;;29.80;56.90;;;;;;5063439;28;20219;-68
2023/02/07 03:26:14;;;;;;;7.00;1.50;;;30.20;56.30;;;;;;5069444;28;20176;-69
2023/02/07 03:28:43;;;;;;;5.13;1.73;;;30.30;55.90;;;;;;5060780;28;20263;-70
2023/02/07 03:31:12;;;;;;;7.93;1.70;;;30.60;53.90;;;;;;5065697;28;20587;-70
2023/02/07 03:33:41;;;;;;;9.07;1.60;;;30.50;54.70;;;;;;5069841;28;20199;-70
2023/02/07 03:36:18;;;;;;;5.45;2.08;;;30.80;53.60;;;;;;5074465;28;20202;-73
2023/02/07 03:38:47;;;;;;;5.22;1.58;;;30.60;53.50;;;;;;5066433;28;20187;-71
2023/02/07 03:41:29;;;;;;;10.93;1.95;;;30.60;54.40;;;;;;5070605;28;20180;-68
2023/02/07 03:43:59;;;;;;;6.68;1.80;;;30.30;55.60;;;;;;5066419;28;21437;-70
2023/02/07 03:46:31;;;;;;;6.60;1.73;;;30.20;54.80;;;;;;5071499;28;20191;-71
2023/02/07 03:48:58;;;;;;;7.13;2.10;;;30.50;53.30;;;;;;5071757;28;20179;-71
2023/02/07 03:51:26;;;;;;;6.10;1.55;;;30.50;54.00;;;;;;5071416;28;20183;-68
2023/02/07 03:53:53;;;;;;;7.72;1.90;;;30.40;53.20;;;;;;5071430;28;20298;-70
2023/02/07 03:56:20;;;;;;;8.48;1.83;;;30.70;53.90;;;;;;5070175;28;20191;-69
2023/02/07 03:58:48;;;;;;;6.88;1.58;;;30.50;54.00;;;;;;5061688;28;20585;-70
2023/02/07 04:01:15;;;;;;;7.43;1.50;;;30.50;53.70;;;;;;5065769;28;20182;-70
2023/02/07 04:03:42;;;;;;;4.50;1.63;;;30.90;51.50;;;;;;5071145;28;20178;-71
2023/02/07 04:06:10;;;;;;;8.07;1.58;;;31.00;51.00;;;;;;5069598;28;20187;-72
2023/02/07 04:08:37;;;;;;;5.65;1.70;;;30.80;52.00;;;;;;5069812;28;20179;-73
2023/02/07 04:11:05;;;;;;;8.00;2.03;;;30.50;51.70;;;;;;5068617;28;20175;-72
2023/02/07 04:13:32;;;;;;;5.65;1.60;;;30.50;51.10;;;;;;5067355;28;20262;-74
2023/02/07 04:16:00;;;;;;;7.00;1.77;;;30.30;51.20;;;;;;5065864;28;20195;-72
2023/02/07 04:18:27;;;;;;;7.57;1.35;;;30.40;52.20;;;;;;5067399;28;20187;-75
2023/02/07 04:21:06;;;;;;;6.90;1.63;;;30.50;51.50;;;;;;5071127;28;20546;-70
2023/02/07 04:23:34;;;;;;;6.38;1.90;;;30.40;51.60;;;;;;5068286;28;20210;-71
2023/02/07 04:26:02;;;;;;;7.38;1.90;;;30.50;51.70;;;;;;5074038;28;20275;-72
2023/02/07 04:28:30;;;;;;;3.80;1.50;;;30.30;52.60;;;;;;5070577;28;20676;-73
2023/02/07 04:30:57;;;;;;;10.93;1.73;;;30.30;52.20;;;;;;5065670;28;20732;-70
2023/02/07 04:33:25;;;;;;;6.13;1.73;;;31.00;50.90;;;;;;5066428;28;20829;-71
2023/02/07 04:36:03;;;;;;;6.03;2.08;;;31.20;50.00;;;;;;5061811;28;20182;-73
2023/02/07 04:38:30;;;;;;;4.63;1.55;;;30.80;50.10;;;;;;5069184;28;20182;-70
2023/02/07 04:41:03;;;;;;;5.65;1.50;;;31.10;50.00;;;;;;5065737;28;20286;-71
2023/02/07 04:43:32;;;;;;;3.03;1.27;;;31.30;49.30;;;;;;5071922;28;20193;-70
2023/02/07 04:46:00;;;;;;;3.80;1.20;;;31.40;49.60;;;;;;5071061;28;20179;-73
2023/02/07 04:48:28;;;;;;;5.90;1.77;;;31.10;49.10;;;;;;5068540;28;20203;-70
2023/02/07 04:50:55;;;;;;;5.97;1.60;;;30.80;51.20;;;;;;5071299;28;20183;-70
2023/02/07 04:53:23;;;;;;;8.52;1.75;;;31.40;49.50;;;;;;5067300;28;20740;-70
2023/02/07 04:55:52;;;;;;;5.00;1.38;;;30.70;51.20;;;;;;5070247;28;20183;-71
2023/02/07 04:58:20;;;;;;;7.68;1.52;;;31.10;50.80;;;;;;5069480;28;20659;-70
2023/02/07 05:00:47;;;;;;;5.95;1.63;;;31.40;49.40;;;;;;5063281;28;20187;-77
2023/02/07 05:03:15;;;;;;;4.07;1.55;;;31.50;49.20;;;;;;5068085;28;20179;-77
2023/02/07 05:05:44;;;;;;;7.40;1.85;;;31.40;49.60;;;;;;5070961;28;20192;-71
2023/02/07 05:08:12;;;;;;;3.60;1.50;;;31.00;50.10;;;;;;5066145;28;20667;-71
2023/02/07 05:10:40;;;;;;;8.77;1.77;;;30.30;51.90;;;;;;5065454;28;20635;-70
2023/02/07 05:13:07;;;;;;;6.47;1.42;;;30.90;51.00;;;;;;5062740;28;20191;-71
2023/02/07 05:15:35;;;;;;;6.85;1.52;;;30.80;50.80;;;;;;5073380;28;20222;-81
2023/02/07 05:18:03;;;;;;;5.93;1.58;;;30.50;51.80;;;;;;5066414;28;20270;-71
2023/02/07 05:20:30;;;;;;;6.93;1.67;;;30.50;50.90;;;;;;5068039;28;20661;-70
2023/02/07 05:22:58;;;;;;;13.38;2.20;;;30.50;51.60;;;;;;5068446;28;20183;-70
2023/02/07 05:25:25;;;;;;;8.32;1.65;;;31.30;49.90;;;;;;5069588;28;20258;-73
2023/02/07 05:27:52;;;;;;;5.57;1.55;;;31.40;49.40;;;;;;5067871;28;20174;-71
2023/02/07 05:30:20;;;;;;;7.55;1.63;;;31.00;48.50;;;;;;5072735;28;20664;-71
2023/02/07 05:33:02;;;;;;;6.10;1.70;;;31.30;49.50;;;;;;5073433;28;20179;-71
2023/02/07 05:35:38;;;;;;;8.68;1.80;;;31.40;48.20;;;;;;5070695;28;20291;-74
2023/02/07 05:38:08;;;;;;;4.15;1.30;;;31.30;48.70;;;;;;5070558;28;20212;-70
2023/02/07 05:40:37;;;;;;;6.95;1.50;;;31.10;48.80;;;;;;5073619;28;20659;-68
2023/02/07 05:43:05;;;;;;;4.95;1.38;;;31.00;49.70;;;;;;5066641;28;20332;-68
2023/02/07 05:45:33;;;;;;;4.15;1.70;;;30.60;50.60;;;;;;5068166;28;20186;-68
2023/02/07 05:48:02;;;;;;;7.18;1.80;;;30.70;51.00;;;;;;5073860;28;20202;-74
2023/02/07 05:50:30;;;;;;;7.47;1.88;;;30.80;50.10;;;;;;5073263;28;20180;-70
2023/02/07 05:52:57;;;;;;;7.65;1.60;;;31.10;49.40;;;;;;5071763;28;20229;-68
2023/02/07 05:55:24;;;;;;;5.38;1.52;;;31.10;49.70;;;;;;5070205;28;20732;-70
2023/02/07 05:57:52;;;;;;;8.00;1.67;;;31.00;49.50;;;;;;5073180;28;20183;-72
2023/02/07 06:00:20;;;;;;;6.55;1.60;;;30.50;51.70;;;;;;5069021;28;20835;-69
2023/02/07 06:02:47;;;;;;;6.53;1.65;;;30.60;50.30;;;;;;5070959;28;20274;-73
2023/02/07 06:05:19;;;;;;;7.82;1.95;;;30.20;51.60;;;;;;5071987;28;20668;-72
2023/02/07 06:07:47;;;;;;;7.43;2.00;;;30.30;51.40;;;;;;5072824;28;20183;-76
2023/02/07 06:10:15;;;;;;;7.05;1.80;;;30.80;49.80;;;;;;5070610;28;20788;-69
2023/02/07 06:12:42;;;;;;;9.23;1.90;;;31.10;49.50;;;;;;5073272;28;20294;-71
2023/02/07 06:15:10;;;;;;;4.70;1.50;;;31.10;50.50;;;;;;5070651;28;20250;-74
2023/02/07 06:17:37;;;;;;;7.35;1.92;;;30.70;50.90;;;;;;5072992;28;20685;-69
2023/02/07 06:20:05;;;;;;;5.45;1.90;;;30.70;51.50;;;;;;5066598;28;20263;-66
2023/02/07 06:22:32;;;;;;;7.97;2.08;;;30.80;51.10;;;;;;5067100;28;20179;-71
2023/02/07 06:25:00;;;;;;;6.22;1.90;;;30.70;51.60;;;;;;5072629;28;20678;-68
2023/02/07 06:27:27;;;;;;;4.90;1.40;;;30.70;51.80;;;;;;5069272;28;20269;-68
2023/02/07 06:29:54;;;;;;;5.38;1.58;;;30.80;50.50;;;;;;5071752;28;20192;-71
2023/02/07 06:32:22;;;;;;;5.40;1.73;;;30.70;51.10;;;;;;5071993;28;20530;-72
2023/02/07 06:34:49;;;;;;;5.43;1.45;;;30.80;50.70;;;;;;5072169;28;20227;-69
2023/02/07 06:37:16;;;;;;;6.72;1.70;;;30.90;50.60;;;;;;5072409;28;20232;-70
2023/02/07 06:39:44;;;;;;;7.00;1.83;;;31.50;49.80;;;;;;5071989;28;20241;-68
2023/02/07 06:42:11;;;;;;;7.80;1.80;;;31.10;49.40;;;;;;5072339;28;20240;-70
2023/02/07 06:44:38;;;;;;;5.03;1.70;;;31.10;49.70;;;;;;5072557;28;20179;-75
2023/02/07 06:47:06;;;;;;;8.35;2.00;;;31.50;48.20;;;;;;5069752;28;20229;-72
2023/02/07 06:49:33;;;;;;;5.85;1.70;;;30.80;50.40;;;;;;5067916;28;20179;-64
2023/02/07 06:52:00;;;;;;;6.45;2.03;;;31.00;50.30;;;;;;5072042;28;20715;-68
2023/02/07 06:54:28;;;;;;;6.43;1.90;;;30.40;50.50;;;;;;5071987;28;20218;-67
2023/02/07 06:56:55;;;;;;;4.85;1.85;;;30.10;52.60;;;;;;5072162;28;20179;-70
2023/02/07 06:59:22;;;;;;;4.82;1.48;;;30.80;50.80;;;;;;5071964;28;20183;-68
2023/02/07 07:01:50;;;;;;;4.75;1.73;;;30.80;50.50;;;;;;5072300;28;20197;-72
2023/02/07 07:04:17;;;;;;;6.53;2.00;;;30.80;50.00;;;;;;5068888;28;20266;-67
2023/02/07 07:06:44;;;;;;;6.15;1.95;;;30.10;51.60;;;;;;5071993;28;20267;-68
2023/02/07 07:09:12;;;;;;;4.82;1.75;;;30.20;51.70;;;;;;5072046;28;20179;-69
2023/02/07 07:11:41;;;;;;;7.70;1.77;;;29.30;54.40;;;;;;5068740;28;20178;-68
2023/02/07 07:14:12;;;;;;;7.93;2.33;;;28.40;56.40;;;;;;5069353;28;20268;-69
2023/02/07 07:16:40;;;;;;;6.47;1.70;;;28.10;58.00;;;;;;5070549;28;20661;-68
2023/02/07 07:19:07;;;;;;;3.83;1.60;;;28.70;57.20;;;;;;5072004;28;20688;-68
2023/02/07 07:21:35;;;;;;;5.00;1.63;;;29.30;55.10;;;;;;5071691;28;20172;-70
2023/02/07 07:24:02;;;;;;;6.43;1.70;;;28.70;56.40;;;;;;5070536;28;20222;-68
2023/02/07 07:26:29;;;;;;;8.17;2.17;;;28.00;57.50;;;;;;5070890;28;20210;-69
2023/02/07 07:28:59;;;;;;;5.30;1.90;;;27.70;57.70;;;;;;5071524;28;20218;-70
2023/02/07 07:31:26;;;;;;;7.23;1.97;;;27.70;58.10;;;;;;5071051;28;20192;-70
2023/02/07 07:33:54;;;;;;;6.10;1.87;;;27.90;57.30;;;;;;5072009;28;20195;-70
2023/02/07 07:36:22;;;;;;;6.03;2.20;;;27.90;57.30;;;;;;5071267;28;20221;-70
2023/02/07 07:38:49;;;;;;;8.10;1.93;;;28.10;56.40;;;;;;5071198;28;20171;-70
2023/02/07 07:41:17;;;;;;;4.30;1.83;;;28.20;55.80;;;;;;5070845;28;20183;-69
2023/02/07 07:43:44;;;;;;;9.93;2.40;;;29.00;54.30;;;;;;5067765;28;20560;-71
2023/02/07 07:46:11;;;;;;;5.17;2.00;;;28.80;54.20;;;;;;5070882;28;20175;-72
2023/02/07 07:48:39;;;;;;;6.93;1.97;;;28.80;54.30;;;;;;5070461;28;20226;-69
2023/02/07 07:51:06;;;;;;;6.77;2.20;;;28.60;55.10;;;;;;5070683;28;20258;-72
2023/02/07 07:53:33;;;;;;;6.37;2.27;;;27.90;57.10;;;;;;5070562;28;20227;-68
2023/02/07 07:56:01;;;;;;;6.77;1.90;;;27.60;57.60;;;;;;5071205;28;20210;-68
2023/02/07 07:58:28;;;;;;;8.43;3.30;;;27.60;57.90;;;;;;5070980;28;20186;-71
2023/02/07 08:00:56;;;;;;;8.47;2.43;;;27.20;59.30;;;;;;5069511;28;20275;-67
2023/02/07 08:03:23;;;;;;;7.43;2.03;;;26.80;60.30;;;;;;5070792;28;20183;-67
2023/02/07 08:05:51;;;;;;;8.47;1.97;;;26.60;61.10;;;;;;5071144;28;20176;-68
2023/02/07 08:08:18;;;;;;;8.40;2.03;;;26.40;61.30;;;;;;5070891;28;20321;-68
2023/02/07 08:10:47;;;;;;;8.13;2.00;;;26.30;62.10;;;;;;5070071;28;20171;-74
2023/02/07 08:13:15;;;;;;;6.20;1.90;;;26.10;62.40;;;;;;5070751;28;20183;-68
2023/02/07 08:15:43;;;;;;;7.20;2.10;;;26.00;63.10;;;;;;5070419;28;20241;-72
2023/02/07 08:18:11;;;;;;;8.73;2.33;;;25.90;63.60;;;;;;5070483;28;20252;-69
2023/02/07 08:20:38;;;;;;;5.83;1.93;;;25.90;63.70;;;;;;5070806;28;20171;-67
2023/02/07 08:23:05;;;;;;;6.83;1.53;;;26.00;64.10;;;;;;5071009;28;20171;-67
2023/02/07 08:25:32;;;;;;;7.17;1.90;;;25.80;63.80;;;;;;5068315;28;20633;-70
2023/02/07 08:28:00;;;;;;;6.47;2.10;;;25.60;64.60;;;;;;5070929;28;20249;-70
2023/02/07 08:30:27;;;;;;;8.33;2.37;;;25.80;64.80;;;;;;5069528;28;20190;-68
2023/02/07 08:32:54;;;;;;;7.03;2.23;;;25.60;65.20;;;;;;5070661;28;20195;-69
2023/02/07 08:35:22;;;;;;;9.03;2.20;;;25.70;65.00;;;;;;5069747;28;20226;-69
2023/02/07 08:37:50;;;;;;;8.33;1.93;;;25.70;65.00;;;;;;5070917;28;20183;-70
2023/02/07 08:40:18;;;;;;;7.17;2.20;;;25.70;65.40;;;;;;5069980;28;20194;-72
2023/02/07 08:42:45;;;;;;;11.00;2.10;;;25.70;65.50;;;;;;5070892;28;20324;-69
2023/02/07 08:45:14;;;;;;;9.10;1.80;;;25.50;65.80;;;;;;5063748;28;20179;-68
2023/02/07 08:47:42;;;;;;;8.57;2.10;;;25.60;66.00;;;;;;5068342;28;20772;-69
2023/02/07 08:50:10;;;;;;;6.50;1.70;;;25.60;66.30;;;;;;5066369;28;20179;-70
2023/02/07 08:52:38;;;;;;;8.10;2.23;;;25.60;66.30;;;;;;5068190;28;20250;-69
2023/02/07 08:55:06;;;;;;;5.23;1.67;;;25.50;66.30;;;;;;5069930;28;20219;-70
2023/02/07 08:57:34;;;;;;;7.80;2.33;;;25.40;67.00;;;;;;5069729;28;20665;-69
2023/02/07 09:00:02;;;;;;;7.00;2.17;;;25.30;66.90;;;;;;5068636;28;20257;-69
2023/02/07 09:02:29;;;;;;;9.43;2.37;;;25.50;67.10;;;;;;5068982;28;20179;-72
2023/02/07 09:04:57;;;;;;;9.07;2.17;;;25.30;66.60;;;;;;5072953;28;20248;-70
2023/02/07 09:07:24;;;;;;;9.97;1.70;;;25.30;66.80;;;;;;5072109;28;20218;-71
2023/02/07 09:09:51;;;;;;;6.53;1.73;;;25.10;67.00;;;;;;5073382;28;20182;-70
2023/02/07 09:12:18;;;;;;;7.83;2.33;;;25.10;67.40;;;;;;5069129;28;20182;-70
2023/02/07 09:14:46;;;;;;;8.80;2.00;;;25.20;67.30;;;;;;5067011;28;20347;-70
2023/02/07 09:17:14;;;;;;;8.20;2.07;;;25.20;67.50;;;;;;5070809;28;20273;-70
2023/02/07 09:19:41;;;;;;;4.90;1.87;;;25.20;67.50;;;;;;5069403;28;20183;-70
2023/02/07 09:22:08;;;;;;;8.67;2.17;;;25.20;67.10;;;;;;5072440;28;20604;-70
2023/02/07 09:24:36;;;;;;;7.23;1.90;;;25.20;67.10;;;;;;5074301;28;20258;-70
2023/02/07 09:27:03;;;;;;;9.80;2.40;;;25.20;67.10;;;;;;5071362;28;20270;-70
2023/02/07 09:29:31;;;;;;;8.67;2.13;;;25.20;67.30;;;;;;5070945;28;20171;-69
2023/02/07 09:31:58;;;;;;;7.87;2.17;;;25.20;66.90;;;;;;5073721;28;20743;-70
2023/02/07 09:34:26;;;;;;;9.50;2.57;;;25.20;67.20;;;;;;5067286;28;20207;-70
2023/02/07 09:36:54;;;;;;;10.00;2.30;;;25.20;67.40;;;;;;5072962;28;20187;-70
2023/02/07 09:39:21;;;;;;;12.50;2.63;;;25.20;67.30;;;;;;5073151;28;20231;-69
2023/02/07 09:42:00;;;;;;;3.60;1.70;;;25.20;67.50;;;;;;5073162;28;20215;-69
2023/02/07 09:44:28;;;;;;;9.23;2.17;;;25.10;67.50;;;;;;5070768;28;20237;-70
2023/02/07 09:47:04;;;;;;;11.33;2.07;;;25.10;67.60;;;;;;5073282;28;20187;-70
2023/02/07 09:49:47;;;;;;;6.87;2.00;;;25.10;67.80;;;;;;5070474;28;20187;-70
2023/02/07 09:52:26;;;;;;;7.77;1.70;;;25.00;68.20;;;;;;5065336;28;20215;-70
2023/02/07 09:54:55;;;;;;;10.67;2.30;;;25.10;67.90;;;;;;5070576;28;20211;-69
2023/02/07 09:57:36;;;;;;;11.10;2.17;;;25.10;67.60;;;;;;5072702;28;20270;-70
2023/02/07 10:00:19;;;;;;;6.53;1.80;;;25.10;67.90;;;;;;5069752;28;20569;-70
2023/02/07 10:03:02;;;;;;;9.77;2.40;;;25.10;67.70;;;;;;5071448;28;22386;-70
2023/02/07 10:05:40;;;;;;;6.53;1.67;;;25.00;68.00;;;;;;5067041;28;20194;-70
2023/02/07 10:08:17;;;;;;;8.13;2.03;;;24.90;68.10;;;;;;5068822;28;20206;-69
2023/02/07 10:10:59;;;;;;;6.27;2.03;;;24.90;68.30;;;;;;5072327;28;20171;-69
2023/02/07 10:13:56;;;;;;;10.63;1.73;;;24.90;68.40;;;;;;5070896;28;20179;-69
2023/02/07 10:16:45;;;;;;;9.33;1.60;;;24.80;68.50;;;;;;5071531;28;20194;-69
2023/02/07 10:19:15;;;;;;;7.33;2.23;;;24.90;68.40;;;;;;5071754;28;20592;-69
2023/02/07 10:22:02;;;;;;;8.67;2.13;;;24.80;67.90;;;;;;5072732;28;20190;-67
2023/02/07 10:24:49;;;;;;;7.80;1.87;;;24.80;68.40;;;;;;5071360;28;20281;-68
2023/02/07 10:27:30;;;;;;;7.47;1.80;;;24.80;68.30;;;;;;5069819;28;20203;-70
2023/02/07 10:30:26;;;;;;;7.87;1.70;;;24.80;68.30;;;;;;5070216;28;20300;-69
2023/02/07 10:32:58;;;;;;;6.63;1.73;;;24.80;68.20;;;;;;5072780;28;20179;-68
2023/02/07 10:35:35;;;;;;;7.60;2.07;;;24.70;68.30;;;;;;5068333;28;20332;-67
2023/02/07 10:38:04;;;;;;;6.67;2.00;;;24.70;68.70;;;;;;5069659;28;20175;-69
2023/02/07 10:40:39;;;;;;;8.07;1.80;;;24.70;68.50;;;;;;5067296;28;20186;-70
2023/02/07 10:43:13;;;;;;;7.33;1.60;;;24.70;68.50;;;;;;5069862;28;20645;-70
2023/02/07 10:45:41;;;;;;;9.20;2.30;;;24.70;68.50;;;;;;5070756;28;20182;-71
2023/02/07 10:48:15;;;;;;;8.77;1.80;;;24.60;68.40;;;;;;5069778;28;20183;-69
2023/02/07 10:50:42;;;;;;;10.70;2.13;;;24.60;68.50;;;;;;5071258;28;20206;-70
2023/02/07 10:53:10;;;;;;;9.73;1.77;;;24.60;68.70;;;;;;5071563;28;20683;-69
2023/02/07 10:55:46;;;;;;;8.10;1.87;;;24.60;68.90;;;;;;5068655;28;20237;-74
2023/02/07 10:58:22;;;;;;;5.47;1.87;;;24.50;69.30;;;;;;5064015;28;20179;-70
2023/02/07 11:00:52;;;;;;;10.20;1.90;;;24.50;69.50;;;;;;5071977;28;20167;-71
2023/02/07 11:03:24;;;;;;;8.37;1.70;;;24.40;69.40;;;;;;5070774;28;20199;-70
2023/02/07 11:06:03;;;;;;;9.20;1.93;;;24.40;69.70;;;;;;5070043;28;20199;-71
2023/02/07 11:08:33;;;;;;;5.50;1.60;;;24.30;69.50;;;;;;5070854;28;20194;-70
2023/02/07 11:11:24;;;;;;;9.07;2.13;;;24.30;69.60;;;;;;5071149;28;20320;-69
2023/02/07 11:13:54;;;;;;;8.17;1.97;;;24.30;69.80;;;;;;5063216;28;20214;-70
2023/02/07 11:16:24;;;;;;;7.03;2.30;;;24.30;70.10;;;;;;5070678;28;20248;-70
2023/02/07 11:18:58;;;;;;;6.07;1.70;;;24.30;70.20;;;;;;5070550;28;20288;-70
2023/02/07 11:21:39;;;;;;;5.13;1.33;;;24.30;69.90;;;;;;5071575;28;20209;-71
2023/02/07 11:24:30;;;;;;;8.63;1.97;;;24.30;69.90;;;;;;5070778;28;20182;-70
2023/02/07 11:27:03;;;;;;;8.87;2.00;;;24.30;70.00;;;;;;5071408;28;20179;-70
2023/02/07 11:29:36;;;;;;;7.20;1.80;;;24.30;70.30;;;;;;5071335;28;20634;-71
2023/02/07 11:32:04;;;;;;;7.33;1.63;;;24.30;70.50;;;;;;5071573;28;20179;-69
2023/02/07 11:34:37;;;;;;;7.93;1.97;;;24.30;70.60;;;;;;5069980;28;20267;-70
2023/02/07 11:37:17;;;;;;;9.50;1.80;;;24.30;70.70;;;;;;5071148;28;20191;-71
2023/02/07 11:39:45;;;;;;;8.07;2.03;;;24.20;71.00;;;;;;5071138;28;20178;-70
2023/02/07 11:42:17;;;;;;;10.67;1.83;;;24.20;71.00;;;;;;5070893;28;20210;-71
2023/02/07 11:44:46;;;;;;;8.23;1.97;;;24.10;71.10;;;;;;5067972;28;20182;-71
2023/02/07 11:47:17;;;;;;;9.70;1.90;;;24.20;71.10;;;;;;5071020;28;20175;-70
2023/02/07 11:49:58;;;;;;;7.03;1.97;;;24.20;71.10;;;;;;5066745;28;20203;-71
2023/02/07 11:52:28;;;;;;;8.67;1.97;;;24.20;71.30;;;;;;5070441;28;20708;-70
2023/02/07 11:55:00;;;;;;;10.43;1.97;;;24.10;71.40;;;;;;5071560;28;20214;-70
2023/02/07 11:57:34;;;;;;;7.47;2.03;;;24.20;71.40;;;;;;5071760;28;20253;-70
2023/02/07 12:00:07;;;;;;;8.00;2.23;;;24.10;71.50;;;;;;5068091;28;20245;-70
2023/02/07 12:02:36;;;;;;;5.47;1.73;;;24.20;71.50;;;;;;5071847;28;20266;-70
2023/02/07 12:05:26;;;;;;;6.93;1.90;;;24.20;71.20;;;;;;5072036;28;20711;-71
2023/02/07 12:08:04;;;;;;;9.97;2.60;;;24.20;71.00;;;;;;5066497;28;20191;-70
2023/02/07 12:10:36;;;;;;;7.00;1.87;;;24.30;70.80;;;;;;5070745;28;20183;-70
2023/02/07 12:13:26;;;;;;;3.40;1.47;;;24.30;70.00;;;;;;5071641;28;20273;-70
2023/02/07 12:16:15;;;;;;;7.73;1.63;;;24.30;70.00;;;;;;5062648;28;20560;-71
2023/02/07 12:18:54;;;;;;;4.70;1.60;;;24.30;69.70;;;;;;5067196;28;20668;-71
2023/02/07 12:21:33;;;;;;;8.87;2.00;;;24.30;69.90;;;;;;5070605;28;20191;-71
2023/02/07 12:24:12;;;;;;;6.60;1.63;;;24.30;69.60;;;;;;5069382;28;20175;-70
2023/02/07 12:27:01;;;;;;;11.37;2.07;;;24.30;69.60;;;;;;5071542;28;20183;-70
2023/02/07 12:29:49;;;;;;;6.97;1.67;;;24.20;69.10;;;;;;5067263;28;20223;-70
2023/02/07 12:32:25;;;;;;;9.73;2.37;;;24.20;69.30;;;;;;5070088;28;20206;-71
2023/02/07 12:35:20;;;;;;;7.13;1.70;;;24.20;69.30;;;;;;5070903;28;20558;-71
2023/02/07 12:37:56;;;;;;;6.03;1.67;;;24.20;69.40;;;;;;5069229;28;20171;-70
2023/02/07 12:40:31;;;;;;;10.83;2.53;;;24.20;69.40;;;;;;5073730;28;20707;-70
2023/02/07 12:43:18;;;;;;;6.30;1.73;;;24.10;69.60;;;;;;5073388;28;20210;-70
2023/02/07 12:45:50;;;;;;;8.13;2.13;;;24.10;69.70;;;;;;5071539;28;20590;-70
2023/02/07 12:49:01;;;;;;;8.30;2.13;;;24.10;70.00;;;;;;5069206;28;20679;-71
2023/02/07 12:52:06;;;;;;;9.00;1.43;;;24.00;70.40;;;;;;5061378;28;20545;-70
2023/02/07 12:54:39;;;;;;;7.43;1.80;;;24.00;70.90;;;;;;5071438;28;20321;-69
2023/02/07 12:57:45;;;;;;;4.57;1.47;;;23.90;71.20;;;;;;5074161;28;20187;-68
2023/02/07 13:00:27;;;;;;;7.80;1.93;;;23.90;71.20;;;;;;5050998;28;20192;-70
2023/02/07 13:03:16;;;;;;;6.10;1.87;;;23.90;71.30;;;;;;5053274;28;20242;-69
2023/02/07 13:05:56;;;;;;;6.20;1.90;;;23.90;71.20;;;;;;5067183;28;20187;-69
2023/02/07 13:08:33;;;;;;;9.83;2.20;;;23.90;71.00;;;;;;5073824;28;20187;-69
2023/02/07 13:11:24;;;;;;;8.67;2.13;;;23.80;70.90;;;;;;5073304;28;20175;-70
2023/02/07 13:14:01;;;;;;;6.73;1.87;;;23.80;70.50;;;;;;5055609;28;20213;-70